Главная страница
METAR-TAF:

METAR-TAF

Аэропорты :

Кольцово

Екатеринбург, Россия

широта: 56-50N, долгота: 060-38E, высота над уровнем моря: 237 м

Текущие метеонаблюдения

Эта сводка был подготовлена 27 минут назад, в 07:00 UTC
Ветер 14 Узел от западный
Температура -5°C
Влажность 45%
Давление 1036 hPa
Видимость 10 км и более
Нет облачности ниже 1500 м, и нет кучево-дождевой облачности

METAR: USSS 130700Z 26007MPS CAVOK M05/M15 Q1036 R26R/150050 NOSIG RMK QFE756/1008

Время: 12:27 (07:27 UTC)

Прогноз

Эта сводка был подготовлена 2 часа и 38 минут назад, в 04:49 UTC
Прогноз действительный с 13-го 06 UTC до 14-го 06 UTC
Ветер 14 Узел от западный с порывами до 35 Узел
Видимость 10 км и более
Нет облачности ниже 1500 м, и нет кучево-дождевой облачности

TAF: USSS 130449Z 1306/1406 27007G18MPS CAVOK

Метеонаблюдения и прогнозы для более 4000 аэропортов (сводки METAR и TAF).

Имеющиеся станции представлены на карте желтыми и красными точками.

Чтобы увидеть название станции, наведите на нее мышь.

Затем щелкните, чтобы увидеть метеонаблюдения и метеопрогнозы.

Управление картой: чтобы увеличить масштаб, щелкните зеленые кнопки с черным крестиком; чтобы уменьшить масштаб, щелкните зеленую кнопку с тире; для просмотра соседних карт щелкайте зеленые стрелки.


METAR-TAF: